Time;durP1;ratioP1;P1;durP2;ratioP2;P2;SDS_P1;SDS_P2;PMS_P1;PMS_P2;Temp;Humidity;BMP_temperature;BMP_pressure;BME280_temperature;BME280_humidity;BME280_pressure;Samples;Min_cycle;Max_cycle;Signal;HPM_P1;HPM_P2
2022/12/23 00:00:18;;;;;;;41.67;16.65;;;8.50;99.90;;;;;;5115233;27;20050;-62
2022/12/23 00:02:44;;;;;;;37.60;15.60;;;8.60;99.90;;;;;;5128348;27;20031;-63
2022/12/23 00:05:10;;;;;;;38.05;15.80;;;8.60;99.90;;;;;;5102370;28;20099;-64
2022/12/23 00:07:35;;;;;;;40.78;16.23;;;8.60;99.90;;;;;;5118004;27;20039;-62
2022/12/23 00:10:01;;;;;;;41.45;16.15;;;8.60;99.90;;;;;;5113921;27;20035;-63
2022/12/23 00:15:12;;;;;;;36.22;14.50;;;8.60;99.90;;;;;;5128562;27;20039;-62
2022/12/23 00:17:44;;;;;;;32.10;14.70;;;8.60;99.90;;;;;;5108475;27;20490;-62
2022/12/23 00:20:13;;;;;;;34.67;14.82;;;8.60;99.90;;;;;;5104312;27;20119;-63
2022/12/23 00:25:39;;;;;;;35.88;14.63;;;8.60;99.90;;;;;;5128928;27;20475;-63
2022/12/23 00:28:12;;;;;;;39.25;15.55;;;8.60;99.90;;;;;;5123128;27;20107;-63
2022/12/23 00:30:47;;;;;;;42.47;15.20;;;8.60;99.90;;;;;;5128584;27;20070;-63
2022/12/23 00:33:14;;;;;;;41.78;15.63;;;8.60;99.90;;;;;;5121215;27;20770;-65
2022/12/23 00:35:41;;;;;;;37.38;15.02;;;8.60;99.90;;;;;;5118656;27;20035;-64
2022/12/23 00:38:07;;;;;;;38.72;15.95;;;8.60;99.90;;;;;;5104872;27;20528;-63
2022/12/23 00:43:16;;;;;;;48.00;15.90;;;8.60;99.90;;;;;;5113322;27;20573;-62
2022/12/23 00:45:42;;;;;;;43.50;15.68;;;8.70;99.90;;;;;;5127896;27;20035;-63
2022/12/23 00:50:52;;;;;;;57.35;17.40;;;8.70;99.90;;;;;;5111169;28;20043;-63
2022/12/23 00:53:19;;;;;;;51.00;17.70;;;8.70;99.90;;;;;;5120524;27;20110;-65
2022/12/23 00:55:49;;;;;;;54.13;19.25;;;8.70;99.90;;;;;;5121912;27;20039;-63
2022/12/23 00:58:16;;;;;;;61.60;18.60;;;8.70;99.90;;;;;;5119494;27;20401;-63
2022/12/23 01:06:11;;;;;;;63.75;19.00;;;8.70;99.90;;;;;;5119769;27;20043;-63
2022/12/23 01:08:37;;;;;;;68.55;19.45;;;8.70;99.90;;;;;;5124013;27;20035;-62
2022/12/23 01:11:05;;;;;;;56.13;18.95;;;8.70;99.90;;;;;;5131228;27;20107;-62
2022/12/23 01:13:32;;;;;;;58.10;18.77;;;8.70;99.90;;;;;;5122480;27;20081;-62
2022/12/23 01:16:03;;;;;;;64.68;18.90;;;8.70;99.90;;;;;;5122402;27;20041;-62
2022/12/23 01:18:29;;;;;;;57.83;18.63;;;8.80;99.90;;;;;;5130569;27;20457;-62
2022/12/23 01:20:54;;;;;;;59.42;18.65;;;8.70;99.90;;;;;;5103625;27;20067;-64
2022/12/23 01:23:20;;;;;;;63.80;19.23;;;8.80;99.90;;;;;;5103505;27;20050;-63
2022/12/23 01:25:47;;;;;;;61.20;20.00;;;8.80;99.90;;;;;;5105225;27;20073;-63
2022/12/23 01:28:12;;;;;;;58.83;19.85;;;8.80;99.90;;;;;;5125358;27;20043;-63
2022/12/23 01:30:38;;;;;;;59.00;19.00;;;8.80;99.90;;;;;;5127707;27;20088;-63
2022/12/23 01:33:04;;;;;;;53.30;17.95;;;8.80;99.90;;;;;;5126874;27;20057;-62
2022/12/23 01:35:29;;;;;;;58.38;18.63;;;8.80;99.90;;;;;;5104143;27;20047;-63
2022/12/23 01:37:55;;;;;;;56.45;18.52;;;8.80;99.90;;;;;;5123638;27;20027;-65
2022/12/23 01:40:21;;;;;;;63.22;17.77;;;8.80;99.90;;;;;;5130373;27;20158;-63
2022/12/23 01:42:46;;;;;;;50.28;17.52;;;8.70;99.90;;;;;;5129628;27;20114;-62
2022/12/23 01:45:15;;;;;;;55.65;17.42;;;8.70;99.90;;;;;;5129529;27;20034;-63
2022/12/23 01:47:52;;;;;;;54.22;18.05;;;8.80;99.90;;;;;;5116041;27;20067;-63
2022/12/23 01:50:27;;;;;;;51.03;17.52;;;8.80;99.90;;;;;;5109222;28;20042;-63
2022/12/23 01:53:02;;;;;;;46.22;16.67;;;8.80;99.90;;;;;;5108407;28;20031;-62
2022/12/23 01:55:30;;;;;;;46.70;17.20;;;9.00;99.90;;;;;;5130862;27;20043;-65
2022/12/23 01:58:03;;;;;;;48.50;15.50;;;8.80;99.90;;;;;;5111914;28;20063;-63
2022/12/23 02:09:15;;;;;;;40.33;15.00;;;8.70;99.90;;;;;;5100783;28;20040;-62
2022/12/23 02:11:44;;;;;;;35.22;12.90;;;8.70;99.90;;;;;;5124631;28;21485;-62
2022/12/23 02:17:45;;;;;;;25.60;10.20;;;8.80;99.90;;;;;;5118919;28;20035;-63
2022/12/23 02:20:31;;;;;;;25.23;9.65;;;8.80;99.90;;;;;;5130816;28;20067;-63
2022/12/23 02:23:03;;;;;;;27.85;10.55;;;8.70;99.90;;;;;;5118526;28;20092;-62
2022/12/23 02:25:41;;;;;;;24.40;9.77;;;8.70;99.90;;;;;;5118348;28;20035;-63
2022/12/23 02:28:24;;;;;;;27.55;10.18;;;8.70;99.90;;;;;;5128614;28;20497;-63
2022/12/23 02:31:09;;;;;;;27.10;10.52;;;8.70;99.90;;;;;;5124756;28;20114;-63
2022/12/23 02:33:37;;;;;;;29.98;10.20;;;8.70;99.90;;;;;;5121376;28;20035;-64
2022/12/23 02:36:44;;;;;;;26.77;10.73;;;8.70;99.90;;;;;;5111983;28;20169;-63
2022/12/23 02:39:27;;;;;;;26.10;10.95;;;8.70;99.90;;;;;;5117760;28;20134;-63
2022/12/23 02:42:02;;;;;;;26.42;10.77;;;8.70;99.90;;;;;;5103575;28;20044;-64
2022/12/23 02:44:54;;;;;;;21.73;8.90;;;8.70;99.90;;;;;;5124532;28;20039;-63
2022/12/23 02:47:32;;;;;;;21.47;9.93;;;8.70;99.90;;;;;;5112915;28;20061;-63
2022/12/23 02:50:10;;;;;;;23.35;10.23;;;8.70;99.90;;;;;;5120820;28;20039;-64
2022/12/23 02:52:37;;;;;;;26.48;10.05;;;8.60;99.90;;;;;;5111052;28;20484;-63
2022/12/23 02:55:14;;;;;;;21.90;9.60;;;8.70;99.90;;;;;;5122981;28;20110;-65
2022/12/23 02:57:44;;;;;;;24.83;10.45;;;8.60;99.90;;;;;;5118954;27;20035;-64
2022/12/23 03:00:14;;;;;;;22.50;10.18;;;8.60;99.90;;;;;;5123251;27;20043;-63
2022/12/23 03:02:41;;;;;;;22.05;10.45;;;8.60;99.90;;;;;;5108392;27;20457;-64
2022/12/23 03:05:27;;;;;;;24.15;11.00;;;8.60;99.90;;;;;;5130204;27;20114;-64
2022/12/23 03:07:58;;;;;;;26.95;11.00;;;8.60;99.90;;;;;;5130075;27;20045;-64
2022/12/23 03:10:45;;;;;;;19.13;9.50;;;8.60;99.90;;;;;;5126311;27;20038;-64
2022/12/23 03:13:47;;;;;;;22.65;9.95;;;8.60;99.90;;;;;;5122117;27;20047;-64
2022/12/23 03:16:30;;;;;;;26.50;10.60;;;8.60;99.90;;;;;;5125301;27;20370;-64
2022/12/23 03:19:10;;;;;;;21.45;9.95;;;8.60;99.90;;;;;;5113909;27;20047;-64
2022/12/23 03:21:42;;;;;;;20.88;9.70;;;8.60;99.90;;;;;;5125983;27;20128;-64
2022/12/23 03:24:25;;;;;;;19.33;10.35;;;8.60;99.90;;;;;;5110541;27;20039;-63
2022/12/23 03:27:00;;;;;;;21.50;10.50;;;8.60;99.90;;;;;;5123040;27;20400;-64
2022/12/23 03:29:29;;;;;;;20.88;10.18;;;8.60;99.90;;;;;;5125783;27;20187;-64
2022/12/23 03:31:58;;;;;;;23.85;10.70;;;8.60;99.90;;;;;;5105059;27;20051;-64
2022/12/23 03:34:28;;;;;;;22.58;10.77;;;8.50;99.90;;;;;;5101181;28;20048;-62
2022/12/23 03:36:57;;;;;;;24.98;10.75;;;8.60;99.90;;;;;;5122529;27;20088;-65
2022/12/23 03:39:30;;;;;;;26.55;10.95;;;8.60;99.90;;;;;;5112767;27;20044;-63
2022/12/23 03:42:00;;;;;;;25.80;10.65;;;8.60;99.90;;;;;;5110737;27;20043;-63
2022/12/23 03:44:35;;;;;;;23.25;10.55;;;8.50;99.90;;;;;;5131587;27;20507;-63
2022/12/23 03:47:17;;;;;;;23.98;11.10;;;8.60;99.90;;;;;;5107432;27;20043;-64
2022/12/23 03:50:04;;;;;;;24.60;10.10;;;8.50;99.90;;;;;;5132218;27;20062;-65
2022/12/23 03:52:38;;;;;;;23.45;10.80;;;8.50;99.90;;;;;;5101905;27;20035;-63
2022/12/23 03:55:10;;;;;;;26.10;10.88;;;8.50;99.90;;;;;;5130497;27;20509;-64
2022/12/23 03:58:09;;;;;;;24.33;11.52;;;8.50;99.90;;;;;;5126532;27;20034;-64
2022/12/23 04:00:42;;;;;;;24.67;11.38;;;8.50;99.90;;;;;;5127860;27;20050;-63
2022/12/23 04:03:25;;;;;;;25.33;11.88;;;8.50;99.90;;;;;;5125281;27;20059;-63
2022/12/23 04:06:00;;;;;;;28.45;12.27;;;8.50;99.90;;;;;;5117453;27;20035;-65
2022/12/23 04:08:33;;;;;;;27.08;12.25;;;8.50;99.90;;;;;;5124865;27;20039;-64
2022/12/23 04:11:00;;;;;;;29.58;11.63;;;8.50;99.90;;;;;;5119504;27;20410;-63
2022/12/23 04:13:27;;;;;;;28.42;11.48;;;8.40;99.90;;;;;;5126139;27;20035;-64
2022/12/23 04:15:53;;;;;;;32.80;12.43;;;8.50;99.90;;;;;;5112368;27;20435;-64
2022/12/23 04:18:18;;;;;;;30.48;12.57;;;8.50;99.90;;;;;;5119171;27;20039;-64
2022/12/23 04:20:44;;;;;;;29.02;12.13;;;8.40;99.90;;;;;;5119041;27;20095;-64
2022/12/23 04:23:10;;;;;;;33.10;12.40;;;8.50;99.90;;;;;;5124047;27;20112;-64
2022/12/23 04:25:36;;;;;;;31.83;12.60;;;8.50;99.90;;;;;;5124586;27;20404;-64
2022/12/23 04:28:01;;;;;;;27.95;12.07;;;8.40;99.90;;;;;;5127491;27;20281;-65
2022/12/23 04:30:27;;;;;;;32.63;12.68;;;8.40;99.90;;;;;;5125120;27;20057;-64
2022/12/23 04:32:52;;;;;;;32.83;12.48;;;8.40;99.90;;;;;;5105208;27;20042;-64
2022/12/23 04:35:18;;;;;;;32.88;12.32;;;8.40;99.90;;;;;;5125507;27;20092;-63
2022/12/23 04:37:44;;;;;;;29.80;11.98;;;8.40;99.90;;;;;;5110420;27;20045;-64
2022/12/23 04:40:09;;;;;;;31.95;12.38;;;8.40;99.90;;;;;;5114745;27;20181;-63
2022/12/23 04:42:35;;;;;;;27.67;11.25;;;8.40;99.90;;;;;;5130623;27;20485;-65
2022/12/23 04:45:01;;;;;;;27.10;11.93;;;8.40;99.90;;;;;;5123804;27;20073;-65
2022/12/23 04:47:27;;;;;;;26.20;11.50;;;8.40;99.90;;;;;;5125220;27;20035;-64
2022/12/23 04:49:52;;;;;;;25.25;11.85;;;8.40;99.90;;;;;;5124852;27;20031;-63
2022/12/23 04:52:18;;;;;;;24.67;11.13;;;8.40;99.90;;;;;;5107741;27;20126;-65
2022/12/23 04:54:43;;;;;;;26.17;10.88;;;8.40;99.90;;;;;;5117011;27;20070;-64
2022/12/23 04:57:09;;;;;;;26.70;11.65;;;8.40;99.90;;;;;;5128789;27;20428;-65
2022/12/23 04:59:35;;;;;;;29.40;11.95;;;8.30;99.90;;;;;;5122167;27;20027;-64
2022/12/23 05:02:00;;;;;;;28.75;11.57;;;8.30;99.90;;;;;;5126915;27;20088;-65
2022/12/23 05:04:26;;;;;;;25.90;11.35;;;8.30;99.90;;;;;;5120805;27;20055;-65
2022/12/23 05:06:52;;;;;;;29.70;11.30;;;8.30;99.90;;;;;;5096656;28;20088;-63
2022/12/23 05:09:17;;;;;;;29.33;11.95;;;8.30;99.90;;;;;;5127640;27;20035;-64
2022/12/23 05:11:43;;;;;;;29.60;11.98;;;8.30;99.90;;;;;;5126934;27;20059;-63
2022/12/23 05:14:10;;;;;;;25.70;11.23;;;8.20;99.90;;;;;;5112226;27;20515;-65
2022/12/23 05:16:35;;;;;;;28.10;12.15;;;8.20;99.90;;;;;;5106338;27;20035;-64
2022/12/23 05:19:01;;;;;;;24.85;11.52;;;8.20;99.90;;;;;;5128839;27;20049;-65
2022/12/23 05:21:26;;;;;;;28.40;11.93;;;8.20;99.90;;;;;;5124643;27;20602;-64
2022/12/23 05:23:52;;;;;;;29.38;12.38;;;8.10;99.90;;;;;;5128735;27;20066;-64
2022/12/23 05:26:18;;;;;;;27.60;11.80;;;8.10;99.90;;;;;;5117934;27;20043;-64
2022/12/23 05:28:44;;;;;;;28.10;12.05;;;8.10;99.90;;;;;;5122385;27;20040;-64
2022/12/23 05:31:11;;;;;;;33.42;12.75;;;8.10;99.90;;;;;;5121906;27;20041;-65
2022/12/23 05:33:37;;;;;;;31.88;11.95;;;8.10;99.90;;;;;;5108550;27;20061;-65
2022/12/23 05:36:03;;;;;;;28.95;12.35;;;8.10;99.90;;;;;;5094223;28;20035;-65
2022/12/23 05:38:29;;;;;;;30.17;13.13;;;8.10;99.90;;;;;;5124863;27;20038;-64
2022/12/23 05:40:55;;;;;;;29.27;13.40;;;8.10;99.90;;;;;;5128769;27;20390;-65
2022/12/23 05:43:21;;;;;;;31.50;12.80;;;8.10;99.90;;;;;;5096644;27;20043;-64
2022/12/23 05:45:47;;;;;;;28.92;13.35;;;8.10;99.90;;;;;;5122042;27;20058;-64
2022/12/23 05:48:13;;;;;;;28.17;12.52;;;8.10;99.90;;;;;;5127297;27;20477;-64
2022/12/23 05:50:39;;;;;;;30.98;13.00;;;8.10;99.90;;;;;;5109505;27;20031;-64
2022/12/23 05:53:05;;;;;;;28.33;12.73;;;8.10;99.90;;;;;;5125476;27;20039;-64
2022/12/23 05:55:31;;;;;;;28.92;12.55;;;8.00;99.90;;;;;;5110375;27;20032;-64
2022/12/23 05:57:57;;;;;;;29.90;13.02;;;8.10;99.90;;;;;;5121715;27;20049;-64
2022/12/23 06:00:22;;;;;;;43.30;11.98;;;8.00;99.90;;;;;;5116318;28;20432;-62
2022/12/23 06:02:48;;;;;;;61.05;13.13;;;8.00;99.90;;;;;;5118126;28;20031;-64
2022/12/23 06:05:14;;;;;;;28.83;12.75;;;8.00;99.90;;;;;;5128057;28;20031;-64
2022/12/23 06:07:39;;;;;;;29.33;12.73;;;7.90;99.90;;;;;;5129487;28;20066;-64
2022/12/23 06:10:07;;;;;;;29.88;12.55;;;7.90;99.90;;;;;;5120757;28;20034;-64
2022/12/23 06:12:33;;;;;;;30.33;13.07;;;7.90;99.90;;;;;;5102643;28;20374;-64
2022/12/23 06:14:59;;;;;;;33.03;12.85;;;7.90;99.90;;;;;;5126420;28;20038;-63
2022/12/23 06:17:24;;;;;;;32.80;14.02;;;7.90;99.90;;;;;;5123079;28;20050;-64
2022/12/23 06:19:50;;;;;;;29.05;12.95;;;7.90;99.90;;;;;;5103188;28;20366;-64
2022/12/23 06:22:16;;;;;;;31.75;13.43;;;7.90;99.90;;;;;;5123752;28;20107;-63
2022/12/23 06:24:43;;;;;;;32.65;12.82;;;7.90;99.90;;;;;;5100557;28;20027;-64
2022/12/23 06:27:09;;;;;;;31.77;12.73;;;7.90;99.90;;;;;;5115690;28;20439;-64
2022/12/23 06:29:35;;;;;;;30.38;13.95;;;7.90;99.90;;;;;;5118929;28;20067;-64
2022/12/23 06:32:00;;;;;;;28.33;12.70;;;7.90;99.90;;;;;;5127345;27;20070;-64
2022/12/23 06:34:26;;;;;;;26.63;12.38;;;7.90;99.90;;;;;;5108099;27;20027;-65
2022/12/23 06:36:52;;;;;;;28.63;12.98;;;7.90;99.90;;;;;;5129975;27;20104;-64
2022/12/23 06:39:18;;;;;;;25.83;12.60;;;7.90;99.90;;;;;;5125070;27;20485;-63
2022/12/23 06:41:43;;;;;;;44.67;13.02;;;7.80;99.90;;;;;;5129734;27;20037;-63
2022/12/23 06:44:09;;;;;;;27.30;12.52;;;7.80;99.90;;;;;;5111126;27;20094;-64
2022/12/23 06:46:34;;;;;;;31.00;13.15;;;7.60;99.90;;;;;;5124055;27;20043;-64
2022/12/23 06:49:00;;;;;;;27.02;12.88;;;7.80;99.90;;;;;;5120246;27;20508;-63
2022/12/23 06:51:26;;;;;;;29.55;13.15;;;7.80;99.90;;;;;;5128231;27;20036;-64
2022/12/23 06:53:51;;;;;;;27.48;13.57;;;7.80;99.90;;;;;;5109300;27;20118;-64
2022/12/23 06:56:17;;;;;;;30.23;13.25;;;7.80;99.90;;;;;;5126018;27;20157;-64
2022/12/23 06:58:43;;;;;;;26.17;11.88;;;7.90;99.90;;;;;;5131127;27;20087;-63
2022/12/23 07:01:09;;;;;;;27.55;12.52;;;7.80;99.90;;;;;;5119122;27;20123;-64
2022/12/23 07:03:35;;;;;;;29.13;13.40;;;7.80;99.90;;;;;;5123021;27;20123;-64
2022/12/23 07:06:01;;;;;;;30.38;12.68;;;7.80;99.90;;;;;;5125033;27;20447;-64
2022/12/23 07:08:27;;;;;;;57.25;13.02;;;7.80;99.90;;;;;;5127699;27;20038;-64
2022/12/23 07:10:59;;;;;;;26.95;12.13;;;7.80;99.90;;;;;;5127748;27;20053;-63
2022/12/23 07:13:25;;;;;;;31.23;12.98;;;7.80;99.90;;;;;;5111928;27;20366;-64
2022/12/23 07:15:51;;;;;;;26.80;11.43;;;7.80;99.90;;;;;;5109343;27;20046;-64
2022/12/23 07:18:16;;;;;;;28.35;12.00;;;7.80;99.90;;;;;;5127379;27;20504;-64
2022/12/23 07:20:42;;;;;;;25.10;12.02;;;7.80;99.90;;;;;;5129510;27;20027;-64
2022/12/23 07:23:07;;;;;;;26.02;12.15;;;7.80;99.90;;;;;;5126681;27;20062;-64
2022/12/23 07:25:33;;;;;;;25.73;11.25;;;7.80;99.90;;;;;;5112015;27;20035;-64
2022/12/23 07:27:59;;;;;;;25.38;11.50;;;7.80;99.90;;;;;;5126969;27;20516;-62
2022/12/23 07:30:25;;;;;;;22.65;11.65;;;7.80;99.90;;;;;;5111820;27;20035;-64
2022/12/23 07:32:50;;;;;;;25.27;10.38;;;7.80;99.90;;;;;;5129742;27;20066;-64
2022/12/23 07:35:19;;;;;;;22.85;10.50;;;7.80;99.90;;;;;;5127115;27;20035;-64
2022/12/23 07:37:45;;;;;;;25.20;11.45;;;7.90;99.90;;;;;;5130405;27;20039;-65
2022/12/23 07:40:11;;;;;;;26.67;12.07;;;7.80;99.90;;;;;;5132422;27;20058;-65
2022/12/23 07:42:37;;;;;;;24.67;11.50;;;7.80;99.90;;;;;;5107918;28;20392;-64
2022/12/23 07:45:03;;;;;;;23.38;11.02;;;7.80;99.90;;;;;;5102543;27;20040;-64
2022/12/23 07:47:29;;;;;;;22.65;10.88;;;7.80;99.90;;;;;;5123884;27;20035;-65
2022/12/23 07:49:55;;;;;;;22.88;10.82;;;7.80;99.90;;;;;;5093359;27;20383;-64
2022/12/23 07:52:21;;;;;;;22.40;11.13;;;7.80;99.90;;;;;;5120408;27;20042;-64
2022/12/23 07:54:46;;;;;;;24.95;11.63;;;7.80;99.90;;;;;;5125844;27;20396;-64
2022/12/23 07:57:12;;;;;;;25.15;11.75;;;7.80;99.90;;;;;;5124754;27;20031;-63
2022/12/23 07:59:37;;;;;;;22.60;11.00;;;7.80;99.90;;;;;;5103144;27;20042;-65
2022/12/23 08:02:03;;;;;;;25.75;11.77;;;7.80;99.90;;;;;;5123950;27;20446;-64
2022/12/23 08:04:29;;;;;;;23.45;11.38;;;7.80;99.90;;;;;;5127845;27;20039;-64
2022/12/23 08:06:54;;;;;;;27.63;13.52;;;7.80;99.90;;;;;;5129628;27;20066;-64
2022/12/23 08:09:20;;;;;;;30.58;14.00;;;7.80;99.90;;;;;;5123737;27;20043;-62
2022/12/23 08:11:45;;;;;;;32.60;11.98;;;7.80;99.90;;;;;;5121452;27;20027;-64
2022/12/23 08:14:11;;;;;;;28.45;11.88;;;7.80;99.90;;;;;;5128638;27;20038;-64
2022/12/23 08:16:37;;;;;;;23.50;11.10;;;7.80;99.90;;;;;;5118664;27;20065;-65
2022/12/23 08:19:02;;;;;;;25.30;11.07;;;7.80;99.90;;;;;;5124728;27;20065;-63
2022/12/23 08:21:28;;;;;;;25.48;11.82;;;7.80;99.90;;;;;;5127872;27;20031;-64
2022/12/23 08:23:53;;;;;;;20.80;10.18;;;7.80;99.90;;;;;;5103773;27;20092;-65
2022/12/23 08:26:21;;;;;;;22.55;10.80;;;7.80;99.90;;;;;;5126990;27;20591;-64
2022/12/23 08:28:48;;;;;;;25.45;10.35;;;7.80;99.90;;;;;;5127822;27;20035;-63
2022/12/23 08:31:22;;;;;;;23.60;10.75;;;7.80;99.90;;;;;;5123660;27;20308;-65
2022/12/23 08:33:50;;;;;;;24.20;11.27;;;7.90;99.90;;;;;;5127334;27;20485;-64
2022/12/23 08:36:23;;;;;;;24.88;11.27;;;7.90;99.90;;;;;;5124915;27;20042;-64
2022/12/23 08:38:51;;;;;;;21.15;9.63;;;7.80;99.90;;;;;;5129290;27;20490;-63
2022/12/23 08:41:20;;;;;;;23.67;10.73;;;7.90;99.90;;;;;;5105414;27;20051;-64
2022/12/23 08:43:46;;;;;;;23.25;11.20;;;7.90;99.90;;;;;;5106615;27;20062;-65
2022/12/23 08:46:11;;;;;;;22.73;11.35;;;7.90;99.90;;;;;;5124557;27;20493;-64
2022/12/23 08:48:37;;;;;;;22.52;11.40;;;8.00;99.90;;;;;;5125964;27;20058;-63
2022/12/23 08:51:08;;;;;;;23.20;11.32;;;7.90;99.90;;;;;;5102209;27;20181;-65
2022/12/23 08:53:36;;;;;;;22.00;10.55;;;7.90;99.90;;;;;;5108924;27;20390;-64
2022/12/23 08:56:22;;;;;;;21.98;11.02;;;7.90;99.90;;;;;;5123492;27;20038;-64
2022/12/23 08:58:49;;;;;;;20.95;10.10;;;8.00;99.90;;;;;;5125725;27;20295;-64
2022/12/23 09:01:22;;;;;;;23.48;10.48;;;8.00;99.90;;;;;;5123547;27;20371;-64
2022/12/23 09:03:47;;;;;;;18.95;9.48;;;8.00;99.90;;;;;;5130240;27;20042;-65
2022/12/23 09:06:19;;;;;;;22.80;9.57;;;8.00;99.90;;;;;;5104809;27;20032;-65
2022/12/23 09:08:45;;;;;;;19.60;9.67;;;8.00;99.90;;;;;;5123339;27;20046;-64
2022/12/23 09:11:16;;;;;;;21.15;10.23;;;8.00;99.90;;;;;;5129159;27;20023;-64
2022/12/23 09:13:42;;;;;;;19.85;9.90;;;8.00;99.90;;;;;;5127536;27;20202;-63
2022/12/23 09:16:08;;;;;;;18.67;9.23;;;8.00;99.90;;;;;;5128114;27;20081;-65
2022/12/23 09:18:34;;;;;;;20.65;9.57;;;8.10;99.90;;;;;;5126784;27;20038;-65
2022/12/23 09:21:02;;;;;;;19.65;9.73;;;8.10;99.90;;;;;;5101959;27;20429;-64
2022/12/23 09:23:28;;;;;;;20.17;9.50;;;8.10;99.90;;;;;;5126672;27;20031;-65
2022/12/23 09:25:54;;;;;;;19.48;9.75;;;8.10;99.90;;;;;;5125468;27;20494;-65
2022/12/23 09:28:21;;;;;;;21.10;9.57;;;8.10;99.90;;;;;;5115291;27;20058;-65
2022/12/23 09:30:46;;;;;;;18.00;9.27;;;8.20;99.90;;;;;;5116793;27;20035;-63
2022/12/23 09:33:12;;;;;;;18.13;9.10;;;8.20;99.90;;;;;;5123590;27;20489;-65
2022/12/23 09:35:38;;;;;;;16.50;8.98;;;8.20;99.90;;;;;;5099143;27;20027;-63
2022/12/23 09:38:04;;;;;;;20.58;9.40;;;8.20;99.90;;;;;;5113373;27;20405;-64
2022/12/23 09:40:33;;;;;;;17.90;8.85;;;8.20;99.90;;;;;;5119636;27;20050;-65
2022/12/23 09:43:06;;;;;;;19.80;10.00;;;8.20;99.90;;;;;;5112328;27;20035;-63
2022/12/23 09:45:43;;;;;;;20.88;10.10;;;8.20;99.90;;;;;;5112251;27;20181;-62
2022/12/23 09:48:15;;;;;;;20.20;9.95;;;8.20;99.90;;;;;;5114999;27;20035;-64
2022/12/23 09:51:20;;;;;;;19.75;9.88;;;8.20;99.90;;;;;;5119997;27;20035;-64
2022/12/23 09:54:03;;;;;;;18.30;9.20;;;8.20;99.90;;;;;;5108835;27;20531;-63
2022/12/23 09:56:50;;;;;;;20.30;9.75;;;8.20;99.90;;;;;;5111634;27;20046;-64
2022/12/23 09:59:34;;;;;;;17.75;8.93;;;8.20;99.90;;;;;;5117443;27;20465;-62
2022/12/23 10:02:07;;;;;;;19.23;10.02;;;8.20;99.90;;;;;;5119466;28;20039;-64
2022/12/23 10:05:07;;;;;;;18.42;10.05;;;8.20;99.90;;;;;;5125531;28;20131;-63
2022/12/23 10:07:47;;;;;;;19.58;9.68;;;8.30;99.90;;;;;;5039417;27;20055;-65
2022/12/23 10:10:44;;;;;;;18.42;9.10;;;8.30;99.90;;;;;;5103571;28;20035;-64
2022/12/23 10:13:35;;;;;;;19.02;9.80;;;8.30;99.90;;;;;;5113218;27;20044;-65
2022/12/23 10:16:41;;;;;;;15.98;8.88;;;8.30;99.90;;;;;;5116290;27;20065;-63
2022/12/23 10:19:42;;;;;;;19.73;10.13;;;8.40;99.90;;;;;;5111269;27;20085;-62
2022/12/23 10:22:25;;;;;;;17.27;9.05;;;8.40;99.90;;;;;;5114053;27;20039;-62
2022/12/23 10:24:52;;;;;;;19.70;9.30;;;8.40;99.90;;;;;;5118322;27;20117;-64
2022/12/23 10:27:27;;;;;;;18.70;9.30;;;8.40;99.90;;;;;;5109784;27;20043;-62
2022/12/23 10:29:52;;;;;;;16.83;9.10;;;8.50;99.90;;;;;;5127717;27;20046;-62
2022/12/23 10:32:26;;;;;;;21.60;10.10;;;8.50;99.90;;;;;;5119241;27;20047;-64
2022/12/23 10:35:26;;;;;;;18.38;10.00;;;8.50;99.90;;;;;;5121747;27;20766;-66
2022/12/23 10:38:12;;;;;;;18.13;9.82;;;8.50;99.90;;;;;;5102374;27;20401;-64
2022/12/23 10:41:03;;;;;;;19.60;9.73;;;8.50;99.90;;;;;;5120922;27;20035;-62
2022/12/23 10:43:44;;;;;;;19.50;9.02;;;8.50;99.90;;;;;;5106461;27;20040;-64
2022/12/23 10:46:28;;;;;;;18.52;9.35;;;8.50;99.90;;;;;;5095346;28;20039;-64
2022/12/23 10:49:15;;;;;;;15.38;8.80;;;8.50;99.90;;;;;;5099927;27;20047;-63
2022/12/23 10:51:51;;;;;;;20.20;9.80;;;8.60;99.90;;;;;;5116343;27;20079;-64
2022/12/23 10:54:24;;;;;;;19.80;9.45;;;8.60;99.90;;;;;;5115595;27;20536;-65
2022/12/23 10:56:51;;;;;;;17.30;9.43;;;8.60;99.90;;;;;;5121837;27;20077;-64
2022/12/23 10:59:24;;;;;;;16.70;9.07;;;8.60;99.90;;;;;;5117876;27;20063;-62
2022/12/23 11:01:51;;;;;;;;;;;8.60;99.90;;;;;;5100234;28;20128;-62
2022/12/23 11:04:31;;;;;;;18.65;10.30;;;8.60;99.90;;;;;;5099680;28;19916;-62
2022/12/23 11:06:58;;;;;;;21.17;11.23;;;8.60;99.90;;;;;;5095662;28;20496;-62
2022/12/23 11:09:32;;;;;;;20.38;11.35;;;8.60;99.90;;;;;;5119615;27;20043;-63
2022/12/23 11:12:04;;;;;;;20.10;11.23;;;8.60;99.90;;;;;;5120112;27;20031;-64
2022/12/23 11:14:35;;;;;;;22.38;11.32;;;8.60;99.90;;;;;;5096345;28;20049;-64
2022/12/23 11:17:01;;;;;;;27.35;12.95;;;8.60;99.90;;;;;;5112362;27;20673;-64
2022/12/23 11:19:27;;;;;;;25.58;13.50;;;8.60;99.90;;;;;;5095788;28;20130;-65
2022/12/23 11:21:56;;;;;;;26.40;13.10;;;8.60;99.90;;;;;;5117297;27;20040;-63
2022/12/23 11:24:23;;;;;;;25.02;13.93;;;8.60;99.90;;;;;;5116819;27;20037;-63
2022/12/23 11:27:01;;;;;;;35.85;19.10;;;8.50;99.90;;;;;;5122211;27;20042;-65
2022/12/23 11:29:38;;;;;;;35.13;18.80;;;8.50;99.90;;;;;;5118093;27;20043;-65
2022/12/23 11:32:22;;;;;;;28.90;14.68;;;8.50;99.90;;;;;;5118294;27;20043;-63
2022/12/23 11:34:49;;;;;;;27.90;14.38;;;8.60;99.90;;;;;;5115378;27;20122;-62
2022/12/23 11:37:32;;;;;;;26.27;13.52;;;8.50;99.90;;;;;;5128467;27;20035;-65
2022/12/23 11:39:58;;;;;;;25.67;12.48;;;8.60;99.90;;;;;;5098494;28;20040;-62
2022/12/23 11:42:28;;;;;;;34.90;15.75;;;8.60;99.90;;;;;;5120031;27;20494;-65
2022/12/23 11:44:58;;;;;;;35.13;16.52;;;8.50;99.90;;;;;;5123518;27;20395;-62
2022/12/23 11:47:34;;;;;;;30.13;14.80;;;8.60;99.90;;;;;;5119380;27;20045;-65
2022/12/23 11:50:05;;;;;;;31.50;14.73;;;8.50;99.90;;;;;;5111108;27;20514;-64
2022/12/23 11:52:32;;;;;;;28.40;13.40;;;8.60;99.90;;;;;;5123357;27;20038;-64
2022/12/23 11:55:00;;;;;;;34.13;14.45;;;8.60;99.90;;;;;;5098189;27;20430;-65
2022/12/23 11:57:46;;;;;;;37.13;15.48;;;8.60;99.90;;;;;;5121171;27;21504;-63
2022/12/23 12:00:27;;;;;;;34.00;14.90;;;8.50;99.90;;;;;;5104398;27;20111;-65
2022/12/23 12:02:59;;;;;;;31.45;13.50;;;8.50;99.90;;;;;;5116564;27;20539;-64
2022/12/23 12:05:39;;;;;;;30.00;12.90;;;8.50;99.90;;;;;;5111854;27;20131;-65
2022/12/23 12:08:10;;;;;;;29.35;12.35;;;8.50;99.90;;;;;;5118227;27;20714;-64
2022/12/23 12:10:38;;;;;;;28.80;12.90;;;8.50;99.90;;;;;;5100006;27;20035;-65
2022/12/23 12:13:30;;;;;;;26.52;12.45;;;8.50;99.90;;;;;;5119471;27;20042;-62
2022/12/23 12:15:59;;;;;;;;;;;8.50;99.90;;;;;;5119088;27;20038;-63
2022/12/23 12:18:26;;;;;;;25.00;12.70;;;8.50;99.90;;;;;;5125354;27;19945;-64
2022/12/23 12:20:57;;;;;;;30.77;13.05;;;8.50;99.90;;;;;;5094252;27;20092;-63
2022/12/23 12:23:52;;;;;;;25.08;12.55;;;8.50;99.90;;;;;;5115868;27;20113;-64
2022/12/23 12:26:30;;;;;;;24.60;12.27;;;8.50;99.90;;;;;;5102200;27;20122;-64
2022/12/23 12:29:01;;;;;;;23.42;11.05;;;8.50;99.90;;;;;;5120678;27;20122;-63
2022/12/23 12:31:34;;;;;;;25.50;10.90;;;8.50;99.90;;;;;;5119368;27;20564;-64
2022/12/23 12:34:47;;;;;;;24.02;11.25;;;8.50;99.90;;;;;;5118116;27;20059;-62
2022/12/23 12:37:24;;;;;;;22.65;10.70;;;8.50;99.90;;;;;;5088205;27;20091;-63
2022/12/23 12:39:59;;;;;;;23.02;11.02;;;8.50;99.90;;;;;;5112621;27;20043;-62
2022/12/23 12:42:28;;;;;;;29.20;13.35;;;8.50;99.90;;;;;;5093769;27;20137;-65
2022/12/23 12:45:18;;;;;;;29.67;13.48;;;8.50;99.90;;;;;;5096770;27;20039;-64
2022/12/23 12:47:43;;;;;;;25.80;12.15;;;8.50;99.90;;;;;;5109949;27;20514;-64
2022/12/23 12:50:16;;;;;;;28.13;12.85;;;8.50;99.90;;;;;;5122977;27;20027;-64
2022/12/23 12:52:43;;;;;;;23.60;11.75;;;8.50;99.90;;;;;;5096865;27;20076;-63
2022/12/23 12:55:32;;;;;;;25.65;11.85;;;8.50;99.90;;;;;;5096978;28;20031;-62
2022/12/23 12:58:01;;;;;;;27.08;11.95;;;8.50;99.90;;;;;;5117644;27;20485;-64
2022/12/23 13:00:27;;;;;;;23.55;11.63;;;8.50;99.90;;;;;;5104693;27;20103;-65
2022/12/23 13:03:19;;;;;;;26.45;11.75;;;8.50;99.90;;;;;;5123012;27;20057;-65
2022/12/23 13:06:22;;;;;;;23.93;11.13;;;8.50;99.90;;;;;;5114755;27;20130;-65
2022/12/23 13:09:20;;;;;;;22.73;10.63;;;8.50;99.90;;;;;;5095481;27;20397;-63
2022/12/23 13:12:26;;;;;;;26.10;11.45;;;8.50;99.90;;;;;;5106408;27;20099;-63
2022/12/23 13:15:14;;;;;;;28.55;11.13;;;8.50;99.90;;;;;;5098204;27;20074;-63
2022/12/23 13:18:05;;;;;;;27.33;10.85;;;8.50;99.90;;;;;;5119512;27;20126;-63
2022/12/23 13:20:47;;;;;;;26.52;11.90;;;8.50;99.90;;;;;;5107634;27;20413;-66
2022/12/23 13:23:18;;;;;;;30.85;11.65;;;8.50;99.90;;;;;;5116764;27;20110;-63
2022/12/23 13:25:51;;;;;;;26.40;11.93;;;8.50;99.90;;;;;;5091877;27;20046;-66
2022/12/23 13:28:25;;;;;;;28.83;12.25;;;8.50;99.90;;;;;;5128064;27;20047;-63